createdAt,value
2022-08-17T00:02:26.485Z,67.17
2022-08-17T00:05:47.007Z,67.22
2022-08-17T00:08:57.014Z,67.58
2022-08-17T00:12:34.832Z,68.50
2022-08-17T00:15:28.664Z,67.79
2022-08-17T00:18:58.301Z,68.48
2022-08-17T00:22:34.933Z,67.89
2022-08-17T00:25:32.470Z,68.13
2022-08-17T00:28:38.415Z,68.08
2022-08-17T00:31:45.529Z,67.81
2022-08-17T00:34:51.148Z,67.70
2022-08-17T00:37:59.373Z,67.84
2022-08-17T00:41:12.135Z,67.24
2022-08-17T00:44:17.778Z,67.44
2022-08-17T00:47:23.517Z,67.98
2022-08-17T00:50:29.282Z,68.15
2022-08-17T00:53:45.644Z,68.32
2022-08-17T00:57:00.157Z,68.71
2022-08-17T01:00:14.605Z,68.45
2022-08-17T01:03:27.838Z,68.93
2022-08-17T01:06:34.280Z,68.71
2022-08-17T01:09:44.773Z,68.33
2022-08-17T01:12:50.509Z,69.58
2022-08-17T01:16:06.074Z,68.84
2022-08-17T01:19:21.786Z,68.94
2022-08-17T01:22:30.460Z,68.94
2022-08-17T01:25:36.836Z,69.53
2022-08-17T01:28:53.865Z,69.26
2022-08-17T01:32:05.764Z,69.50
2022-08-17T01:35:13.312Z,69.36
2022-08-17T01:38:27.151Z,69.45
2022-08-17T01:41:32.907Z,68.90
2022-08-17T01:44:38.895Z,68.63
2022-08-17T01:47:44.610Z,68.09
2022-08-17T01:50:54.724Z,68.29
2022-08-17T01:54:08.664Z,68.65
2022-08-17T01:57:14.973Z,68.40
2022-08-17T02:00:20.908Z,68.32
2022-08-17T02:03:28.057Z,68.24
2022-08-17T02:06:45.080Z,68.34
2022-08-17T02:10:01.265Z,68.20
2022-08-17T02:13:09.168Z,68.75
2022-08-17T02:16:16.027Z,68.86
2022-08-17T02:19:22.933Z,68.58
2022-08-17T02:22:29.019Z,68.86
2022-08-17T02:25:38.671Z,68.81
2022-08-17T02:28:44.319Z,69.15
2022-08-17T02:31:50.808Z,68.73
2022-08-17T02:34:56.638Z,68.69
2022-08-17T02:38:02.280Z,69.21
2022-08-17T02:41:12.862Z,69.03
2022-08-17T02:44:39.632Z,68.83
2022-08-17T02:47:46.591Z,69.28
2022-08-17T02:50:55.017Z,68.76
2022-08-17T02:54:41.680Z,68.96
2022-08-17T02:57:33.541Z,70.43
2022-08-17T03:00:47.179Z,71.13
2022-08-17T03:03:52.840Z,70.73
2022-08-17T03:06:58.502Z,70.92
2022-08-17T03:10:04.215Z,72.74
2022-08-17T03:13:14.554Z,72.75
2022-08-17T03:16:20.148Z,72.88
2022-08-17T03:19:25.975Z,73.52
2022-08-17T03:22:36.904Z,73.13
2022-08-17T03:25:50.019Z,73.07
2022-08-17T03:29:03.884Z,72.68
2022-08-17T03:32:15.842Z,72.16
2022-08-17T03:35:25.666Z,72.10
2022-08-17T03:38:39.375Z,71.92
2022-08-17T03:41:45.159Z,72.96
2022-08-17T03:44:57.025Z,74.31
2022-08-17T03:48:18.099Z,74.30
2022-08-17T03:51:39.752Z,74.35
2022-08-17T03:55:00.670Z,74.79
2022-08-17T03:58:07.000Z,75.03
2022-08-17T04:01:17.216Z,74.62
2022-08-17T04:04:26.148Z,74.18
2022-08-17T04:07:36.683Z,74.72
2022-08-17T04:10:44.936Z,76.18
2022-08-17T04:13:51.598Z,76.14
2022-08-17T04:17:03.159Z,74.63
2022-08-17T04:20:11.572Z,73.45
2022-08-17T04:23:22.605Z,73.43
2022-08-17T04:26:50.595Z,73.86
2022-08-17T04:29:56.100Z,73.13
2022-08-17T04:33:09.048Z,71.30
2022-08-17T04:36:20.577Z,70.81
2022-08-17T04:39:26.611Z,69.23
2022-08-17T04:42:29.860Z,67.95
2022-08-17T04:45:55.383Z,66.78
2022-08-17T04:49:13.372Z,64.20
2022-08-17T04:52:29.865Z,62.78
2022-08-17T04:55:46.280Z,61.38
2022-08-17T04:58:58.836Z,60.22
2022-08-17T05:02:04.459Z,58.51
2022-08-17T05:05:12.950Z,56.39
2022-08-17T05:08:22.772Z,54.07
2022-08-17T05:11:31.087Z,52.24
2022-08-17T05:14:59.937Z,50.93
2022-08-17T05:18:06.477Z,49.36
2022-08-17T05:21:14.707Z,47.63
2022-08-17T05:24:39.173Z,46.40
2022-08-17T05:27:45.926Z,46.24
2022-08-17T05:30:52.528Z,44.23
2022-08-17T05:33:59.810Z,43.24
2022-08-17T05:37:13.634Z,42.57
2022-08-17T05:40:21.061Z,41.43
2022-08-17T05:43:31.431Z,40.87
2022-08-17T05:46:46.453Z,40.59
2022-08-17T05:49:53.865Z,39.58
2022-08-17T05:53:14.200Z,38.27
2022-08-17T05:56:46.475Z,37.50
2022-08-17T06:00:15.028Z,36.28
2022-08-17T06:03:45.538Z,35.48
2022-08-17T06:07:07.815Z,35.47
2022-08-17T06:10:36.211Z,35.17
2022-08-17T06:14:09.502Z,35.19
2022-08-17T06:17:23.192Z,34.85
2022-08-17T06:20:46.205Z,33.35
2022-08-17T06:24:01.225Z,32.50
2022-08-17T06:27:19.355Z,32.48
2022-08-17T06:30:57.397Z,31.52
2022-08-17T06:33:55.368Z,32.46
2022-08-17T06:37:22.914Z,32.47
2022-08-17T06:41:02.111Z,32.27
2022-08-17T06:44:49.934Z,30.45
2022-08-17T06:48:10.058Z,31.03
2022-08-17T06:51:35.781Z,31.21
2022-08-17T06:55:05.075Z,30.52
2022-08-17T06:58:22.517Z,30.23
2022-08-17T07:01:39.349Z,29.94
2022-08-17T07:04:45.140Z,29.87
2022-08-17T07:08:04.902Z,30.10
2022-08-17T07:11:17.597Z,29.07
2022-08-17T07:14:41.346Z,29.00
2022-08-17T07:17:50.347Z,30.58
2022-08-17T07:21:09.287Z,28.98
2022-08-17T07:24:39.798Z,28.21
2022-08-17T07:27:51.508Z,28.77
2022-08-17T07:30:58.161Z,30.47
2022-08-17T07:34:17.386Z,29.34
2022-08-17T07:37:23.048Z,28.08
2022-08-17T07:40:39.260Z,28.24
2022-08-17T07:43:53.307Z,28.26
2022-08-17T07:47:20.280Z,27.04
2022-08-17T07:50:34.689Z,26.74
2022-08-17T07:53:41.806Z,26.30
2022-08-17T07:56:52.608Z,26.40
2022-08-17T08:00:32.136Z,27.03
2022-08-17T08:03:46.591Z,27.73
2022-08-17T08:07:12.093Z,26.41
2022-08-17T08:10:33.685Z,26.44
2022-08-17T08:13:46.410Z,25.57
2022-08-17T08:17:02.245Z,28.00
2022-08-17T08:20:42.402Z,26.97
2022-08-17T08:23:57.581Z,25.87
2022-08-17T08:27:40.357Z,26.65
2022-08-17T08:30:53.424Z,27.00
2022-08-17T08:34:53.256Z,27.62
2022-08-17T08:37:59.232Z,28.41
2022-08-17T08:41:33.431Z,29.14
2022-08-17T08:45:00.350Z,29.90
2022-08-17T08:48:56.855Z,30.89
2022-08-17T08:52:13.888Z,29.62
2022-08-17T08:55:36.421Z,31.15
2022-08-17T08:58:59.655Z,30.41
2022-08-17T09:02:26.962Z,30.78
2022-08-17T09:05:57.951Z,30.07
2022-08-17T09:09:24.586Z,29.55
2022-08-17T09:12:56.774Z,30.32
2022-08-17T09:16:16.780Z,31.29
2022-08-17T09:19:38.347Z,28.44
2022-08-17T09:22:55.585Z,28.98
2022-08-17T09:26:13.396Z,28.77
2022-08-17T09:29:24.657Z,29.07
2022-08-17T09:32:44.186Z,29.70
2022-08-17T09:36:00.713Z,28.73
2022-08-17T09:39:18.018Z,29.91
2022-08-17T09:42:39.073Z,31.41
2022-08-17T09:46:04.314Z,29.61
2022-08-17T09:49:51.095Z,28.15
2022-08-17T09:53:02.057Z,26.80
2022-08-17T09:56:36.003Z,28.26
2022-08-17T10:00:09.372Z,27.20
2022-08-17T10:04:09.811Z,27.55
2022-08-17T10:07:34.045Z,25.35
2022-08-17T10:10:59.155Z,28.09
2022-08-17T10:14:37.372Z,28.55
2022-08-17T10:18:13.470Z,27.56
2022-08-17T10:21:35.217Z,27.54
2022-08-17T10:25:23.749Z,27.03
2022-08-17T10:28:43.799Z,26.97
2022-08-17T10:32:05.376Z,27.92
2022-08-17T10:35:51.849Z,26.16
2022-08-17T10:39:21.711Z,26.29
2022-08-17T10:42:38.048Z,26.17
2022-08-17T10:46:10.349Z,25.34
2022-08-17T10:49:48.065Z,25.37
2022-08-17T10:52:55.632Z,26.03
2022-08-17T10:56:27.137Z,26.37
2022-08-17T10:59:55.046Z,26.27
2022-08-17T11:03:04.909Z,27.70
2022-08-17T11:06:28.514Z,27.73
2022-08-17T11:10:18.950Z,28.19
2022-08-17T11:13:41.993Z,28.22
2022-08-17T11:17:18.966Z,30.03
2022-08-17T11:21:32.361Z,28.25
2022-08-17T11:24:43.352Z,28.20
2022-08-17T11:28:12.092Z,28.14
2022-08-17T11:31:37.988Z,27.59
2022-08-17T11:35:36.038Z,26.84
2022-08-17T11:38:59.251Z,25.53
2022-08-17T11:42:21.564Z,27.17
2022-08-17T11:45:48.315Z,25.30
2022-08-17T11:49:25.404Z,26.08
2022-08-17T11:52:47.637Z,26.03
2022-08-17T11:56:12.352Z,26.46
2022-08-17T12:00:12.401Z,27.07
2022-08-17T12:03:59.249Z,28.39
2022-08-17T12:07:21.487Z,28.26
2022-08-17T12:10:36.122Z,28.94
2022-08-17T12:13:55.701Z,28.50
2022-08-17T12:17:06.824Z,27.83
2022-08-17T12:20:23.313Z,29.14
2022-08-17T12:23:44.474Z,29.34
2022-08-17T12:27:01.801Z,29.98
2022-08-17T12:30:17.654Z,30.28
2022-08-17T12:33:36.560Z,29.19
2022-08-17T12:36:44.236Z,28.42
2022-08-17T12:40:03.915Z,26.63
2022-08-17T12:43:26.467Z,28.10
2022-08-17T12:46:49.181Z,27.84
2022-08-17T12:49:58.093Z,27.76
2022-08-17T12:53:13.879Z,27.36
2022-08-17T12:56:20.551Z,28.39
2022-08-17T12:59:30.281Z,29.09
2022-08-17T13:02:53.967Z,28.95
2022-08-17T13:06:10.442Z,28.72
2022-08-17T13:09:30.946Z,29.80
2022-08-17T13:12:43.221Z,29.28
2022-08-17T13:16:14.400Z,29.69
2022-08-17T13:19:40.132Z,29.81
2022-08-17T13:22:55.106Z,30.96
2022-08-17T13:26:14.935Z,30.94
2022-08-17T13:29:36.789Z,31.07
2022-08-17T13:32:49.399Z,31.82
2022-08-17T13:36:09.574Z,31.66
2022-08-17T13:39:23.598Z,31.89
2022-08-17T13:42:51.647Z,31.89
2022-08-17T13:46:13.208Z,31.11
2022-08-17T13:49:42.088Z,31.22
2022-08-17T13:52:54.768Z,30.62
2022-08-17T13:56:37.690Z,30.81
2022-08-17T13:59:55.884Z,30.98
2022-08-17T14:03:15.525Z,31.06
2022-08-17T14:06:51.994Z,31.13
2022-08-17T14:09:56.400Z,30.92
2022-08-17T14:13:05.735Z,30.28
2022-08-17T14:16:17.512Z,29.54
2022-08-17T14:19:25.553Z,29.50
2022-08-17T14:22:37.920Z,29.38
2022-08-17T14:25:45.961Z,28.79
2022-08-17T14:28:56.659Z,30.89
2022-08-17T14:32:14.948Z,30.97
2022-08-17T14:35:24.925Z,31.50
2022-08-17T14:38:36.384Z,32.18
2022-08-17T14:41:50.510Z,32.42
2022-08-17T14:45:06.330Z,32.64
2022-08-17T14:48:38.607Z,33.33
2022-08-17T14:51:46.086Z,32.92
2022-08-17T14:54:56.213Z,33.14
2022-08-17T14:58:05.033Z,33.30
2022-08-17T15:01:12.013Z,32.86
2022-08-17T15:04:24.552Z,33.30
2022-08-17T15:07:31.724Z,32.28
2022-08-17T15:10:53.336Z,33.39
2022-08-17T15:14:01.098Z,33.36
2022-08-17T15:17:12.004Z,33.44
2022-08-17T15:20:23.253Z,33.12
2022-08-17T15:23:30.625Z,33.48
2022-08-17T15:26:39.384Z,33.52
2022-08-17T15:29:45.138Z,33.68
2022-08-17T15:32:55.190Z,33.15
2022-08-17T15:36:09.404Z,33.19
2022-08-17T15:39:14.949Z,32.70
2022-08-17T15:42:28.293Z,32.80
2022-08-17T15:45:34.652Z,32.34
2022-08-17T15:48:44.592Z,32.94
2022-08-17T15:51:50.288Z,32.03
2022-08-17T15:54:59.179Z,32.05
2022-08-17T15:58:07.639Z,32.92
2022-08-17T16:01:18.440Z,32.72
2022-08-17T16:04:47.360Z,32.75
2022-08-17T16:08:00.254Z,33.22
2022-08-17T16:11:18.802Z,32.93
2022-08-17T16:14:34.157Z,33.50
2022-08-17T16:17:41.693Z,33.38
2022-08-17T16:20:47.538Z,33.38
2022-08-17T16:23:56.985Z,32.98
2022-08-17T16:27:03.768Z,33.09
2022-08-17T16:30:20.774Z,33.85
2022-08-17T16:33:26.418Z,33.35
2022-08-17T16:36:32.107Z,34.01
2022-08-17T16:39:38.224Z,32.77
2022-08-17T16:42:45.765Z,33.28
2022-08-17T16:45:54.062Z,33.18
2022-08-17T16:49:00.856Z,34.00
2022-08-17T16:52:12.850Z,34.41
2022-08-17T16:55:27.063Z,34.06
2022-08-17T16:58:36.074Z,34.20
2022-08-17T17:01:48.010Z,34.27
2022-08-17T17:05:12.466Z,34.55
2022-08-17T17:08:30.592Z,34.95
2022-08-17T17:11:48.122Z,35.23
2022-08-17T17:14:59.520Z,35.44
2022-08-17T17:18:11.743Z,35.37
2022-08-17T17:21:27.257Z,35.76
2022-08-17T17:24:53.656Z,35.86
2022-08-17T17:28:08.746Z,36.27
2022-08-17T17:31:23.977Z,37.95
2022-08-17T17:34:46.785Z,38.84
2022-08-17T17:38:02.108Z,38.59
2022-08-17T17:41:25.338Z,38.38
2022-08-17T17:44:47.304Z,40.15
2022-08-17T17:47:56.308Z,39.87
2022-08-17T17:52:09.605Z,39.46
2022-08-17T17:55:06.706Z,39.90
2022-08-17T17:58:39.500Z,40.32
2022-08-17T18:02:05.654Z,40.71
2022-08-17T18:05:35.512Z,40.25
2022-08-17T18:09:12.142Z,40.35
2022-08-17T18:12:43.523Z,40.57
2022-08-17T18:15:55.042Z,40.55
2022-08-17T18:19:00.645Z,42.62
2022-08-17T18:22:14.545Z,41.78
2022-08-17T18:25:45.805Z,41.79
2022-08-17T18:28:54.631Z,42.04
2022-08-17T18:32:34.186Z,41.91
2022-08-17T18:35:40.042Z,42.46
2022-08-17T18:38:47.192Z,43.34
2022-08-17T18:41:59.220Z,43.38
2022-08-17T18:45:04.886Z,43.41
2022-08-17T18:48:52.947Z,44.38
2022-08-17T18:52:18.806Z,44.52
2022-08-17T18:55:29.226Z,44.13
2022-08-17T18:58:37.582Z,44.92
2022-08-17T19:02:05.123Z,44.35
2022-08-17T19:05:29.234Z,44.95
2022-08-17T19:08:38.769Z,46.01
2022-08-17T19:11:44.574Z,47.51
2022-08-17T19:14:58.225Z,48.86
2022-08-17T19:18:15.730Z,50.10
2022-08-17T19:21:30.652Z,51.11
2022-08-17T19:24:47.554Z,51.75
2022-08-17T19:28:03.553Z,53.23
2022-08-17T19:31:24.853Z,53.48
2022-08-17T19:34:40.432Z,53.80
2022-08-17T19:38:05.277Z,54.28
2022-08-17T19:41:31.952Z,54.50
2022-08-17T19:44:57.505Z,54.66
2022-08-17T19:48:22.342Z,55.03
2022-08-17T19:51:46.523Z,56.19
2022-08-17T19:55:05.362Z,55.66
2022-08-17T19:58:30.111Z,56.31
2022-08-17T20:01:48.172Z,57.01
2022-08-17T20:05:06.662Z,57.41
2022-08-17T20:08:23.366Z,57.22
2022-08-17T20:11:41.847Z,57.54
2022-08-17T20:14:57.420Z,58.33
2022-08-17T20:18:13.470Z,58.26
2022-08-17T20:21:32.204Z,58.58
2022-08-17T20:24:50.174Z,58.82
2022-08-17T20:28:06.380Z,59.41
2022-08-17T20:31:49.203Z,59.43
2022-08-17T20:35:11.776Z,59.81
2022-08-17T20:38:43.995Z,60.13
2022-08-17T20:42:30.317Z,59.58
2022-08-17T20:46:13.215Z,59.65
2022-08-17T20:49:32.948Z,59.72
2022-08-17T20:52:53.746Z,59.52
2022-08-17T20:56:02.167Z,59.73
2022-08-17T20:59:07.860Z,59.97
2022-08-17T21:02:23.798Z,60.52
2022-08-17T21:05:34.832Z,60.39
2022-08-17T21:09:05.749Z,60.10
2022-08-17T21:12:50.388Z,60.25
2022-08-17T21:16:10.605Z,60.33
2022-08-17T21:20:10.275Z,60.44
2022-08-17T21:23:44.051Z,60.39
2022-08-17T21:27:08.563Z,60.50
2022-08-17T21:30:54.040Z,60.80
2022-08-17T21:34:35.822Z,60.54
2022-08-17T21:37:48.210Z,60.89
2022-08-17T21:40:56.766Z,61.42
2022-08-17T21:44:36.842Z,61.31
2022-08-17T21:48:16.032Z,61.50
2022-08-17T21:51:28.940Z,61.37
2022-08-17T21:54:42.802Z,61.66
2022-08-17T21:57:53.161Z,61.77
2022-08-17T22:01:26.830Z,62.54
2022-08-17T22:04:42.544Z,62.21
2022-08-17T22:07:53.228Z,62.66
2022-08-17T22:11:05.228Z,62.51
2022-08-17T22:14:20.358Z,62.03
2022-08-17T22:17:36.824Z,62.06
2022-08-17T22:21:03.403Z,61.87
2022-08-17T22:24:25.182Z,61.41
2022-08-17T22:28:10.808Z,61.38
2022-08-17T22:31:30.214Z,61.50
2022-08-17T22:34:36.511Z,61.98
2022-08-17T22:37:50.397Z,61.56
2022-08-17T22:41:15.508Z,62.09
2022-08-17T22:44:34.282Z,62.06
2022-08-17T22:47:48.766Z,61.65
2022-08-17T22:51:12.469Z,61.41
2022-08-17T22:54:34.752Z,61.82
2022-08-17T22:58:08.837Z,62.40
2022-08-17T23:01:37.793Z,63.19
2022-08-17T23:04:52.278Z,63.33
2022-08-17T23:08:02.329Z,63.91
2022-08-17T23:11:12.123Z,64.43
2022-08-17T23:14:22.733Z,65.13
2022-08-17T23:17:28.361Z,64.96
2022-08-17T23:20:38.093Z,65.16
2022-08-17T23:23:43.900Z,66.00
2022-08-17T23:26:52.599Z,66.26
2022-08-17T23:29:58.387Z,66.31
2022-08-17T23:33:10.619Z,66.00
2022-08-17T23:36:18.019Z,66.62
2022-08-17T23:39:28.245Z,66.39
2022-08-17T23:42:43.385Z,66.24
2022-08-17T23:45:52.014Z,66.65
2022-08-17T23:48:57.768Z,66.33
2022-08-17T23:52:18.848Z,67.67
2022-08-17T23:55:35.122Z,67.96
2022-08-17T23:58:46.594Z,68.00
